createdAt,value
2019-03-26T00:02:27.218Z,40.44
2019-03-26T00:04:58.010Z,40.41
2019-03-26T00:07:28.931Z,40.44
2019-03-26T00:09:59.699Z,40.38
2019-03-26T00:12:30.500Z,40.27
2019-03-26T00:15:02.060Z,40.41
2019-03-26T00:17:32.894Z,40.38
2019-03-26T00:20:03.711Z,40.38
2019-03-26T00:22:34.509Z,40.36
2019-03-26T00:25:05.560Z,40.50
2019-03-26T00:27:36.503Z,40.49
2019-03-26T00:30:07.508Z,40.45
2019-03-26T00:32:38.261Z,40.49
2019-03-26T00:35:09.098Z,40.45
2019-03-26T00:37:42.956Z,40.44
2019-03-26T00:40:13.793Z,40.45
2019-03-26T00:42:44.615Z,40.30
2019-03-26T00:45:16.411Z,40.29
2019-03-26T00:47:47.173Z,40.35
2019-03-26T00:50:18.032Z,40.38
2019-03-26T00:52:48.810Z,40.30
2019-03-26T00:55:22.905Z,40.30
2019-03-26T00:57:52.259Z,40.39
2019-03-26T01:00:37.726Z,40.40
2019-03-26T01:03:08.539Z,40.40
2019-03-26T01:05:39.372Z,40.44
2019-03-26T01:08:10.313Z,40.40
2019-03-26T01:10:41.139Z,40.42
2019-03-26T01:13:11.955Z,40.48
2019-03-26T01:15:42.742Z,40.46
2019-03-26T01:18:13.571Z,40.39
2019-03-26T01:20:44.528Z,40.63
2019-03-26T01:23:15.300Z,40.51
2019-03-26T01:25:46.097Z,40.43
2019-03-26T01:28:17.437Z,40.38
2019-03-26T01:30:48.278Z,40.59
2019-03-26T01:33:19.086Z,40.52
2019-03-26T01:35:50.233Z,40.54
2019-03-26T01:38:21.001Z,40.59
2019-03-26T01:40:51.831Z,40.38
2019-03-26T01:43:22.617Z,40.43
2019-03-26T01:45:53.641Z,40.48
2019-03-26T01:48:24.470Z,40.36
2019-03-26T01:50:55.280Z,40.46
2019-03-26T01:53:27.108Z,40.41
2019-03-26T01:55:57.920Z,40.41
2019-03-26T01:58:28.710Z,40.43
2019-03-26T02:00:59.516Z,40.41
2019-03-26T02:03:30.248Z,40.40
2019-03-26T02:06:03.069Z,40.45
2019-03-26T02:08:33.857Z,40.53
2019-03-26T02:11:04.738Z,40.50
2019-03-26T02:13:35.514Z,40.30
2019-03-26T02:16:06.385Z,40.38
2019-03-26T02:18:37.130Z,40.33
2019-03-26T02:21:07.938Z,40.29
2019-03-26T02:23:38.839Z,40.26
2019-03-26T02:26:11.274Z,40.22
2019-03-26T02:28:42.103Z,40.33
2019-03-26T02:31:12.920Z,40.46
2019-03-26T02:33:44.853Z,40.45
2019-03-26T02:36:15.743Z,40.58
2019-03-26T02:38:47.546Z,40.63
2019-03-26T02:41:18.628Z,40.42
2019-03-26T02:43:49.519Z,40.60
2019-03-26T02:46:20.365Z,40.50
2019-03-26T02:48:51.308Z,40.51
2019-03-26T02:51:22.166Z,40.55
2019-03-26T02:53:52.930Z,40.43
2019-03-26T02:56:26.468Z,40.61
2019-03-26T02:58:57.275Z,40.40
2019-03-26T03:01:28.041Z,40.54
2019-03-26T03:03:58.866Z,40.38
2019-03-26T03:06:29.610Z,40.41
2019-03-26T03:09:00.469Z,40.58
2019-03-26T03:11:31.785Z,40.49
2019-03-26T03:14:02.611Z,40.34
2019-03-26T03:16:34.842Z,40.43
2019-03-26T03:19:05.757Z,40.38
2019-03-26T03:21:36.584Z,40.42
2019-03-26T03:24:07.485Z,40.49
2019-03-26T03:26:38.334Z,40.49
2019-03-26T03:29:09.296Z,40.43
2019-03-26T03:31:40.189Z,40.17
2019-03-26T03:34:14.133Z,40.34
2019-03-26T03:36:44.866Z,40.50
2019-03-26T03:39:15.747Z,40.56
2019-03-26T03:41:46.489Z,40.43
2019-03-26T03:44:17.308Z,40.56
2019-03-26T03:46:48.117Z,40.68
2019-03-26T03:49:20.483Z,40.39
2019-03-26T03:51:51.452Z,40.33
2019-03-26T03:54:22.430Z,40.57
2019-03-26T03:56:54.236Z,40.58
2019-03-26T03:59:25.095Z,40.39
2019-03-26T04:01:56.031Z,40.58
2019-03-26T04:04:26.833Z,40.46
2019-03-26T04:06:57.588Z,40.56
2019-03-26T04:09:28.347Z,40.35
2019-03-26T04:11:59.152Z,40.53
2019-03-26T04:14:29.957Z,40.49
2019-03-26T04:17:00.717Z,40.45
2019-03-26T04:19:31.561Z,40.58
2019-03-26T04:22:02.299Z,40.76
2019-03-26T04:24:33.583Z,40.49
2019-03-26T04:27:04.383Z,40.37
2019-03-26T04:29:35.169Z,40.24
2019-03-26T04:32:05.944Z,40.06
2019-03-26T04:34:36.787Z,40.08
2019-03-26T04:37:09.189Z,40.10
2019-03-26T04:39:40.038Z,40.00
2019-03-26T04:42:10.839Z,40.11
2019-03-26T04:44:41.709Z,40.00
2019-03-26T04:47:12.552Z,39.94
2019-03-26T04:49:43.343Z,39.96
2019-03-26T04:52:14.099Z,39.88
2019-03-26T04:54:45.018Z,39.91
2019-03-26T04:57:15.849Z,39.80
2019-03-26T04:59:46.717Z,39.75
2019-03-26T05:02:17.557Z,39.86
2019-03-26T05:04:48.420Z,39.70
2019-03-26T05:07:19.226Z,39.70
2019-03-26T05:09:50.088Z,39.51
2019-03-26T05:12:20.903Z,39.62
2019-03-26T05:14:51.656Z,39.52
2019-03-26T05:17:22.439Z,39.59
2019-03-26T05:19:55.523Z,39.48
2019-03-26T05:22:26.351Z,39.61
2019-03-26T05:24:57.215Z,39.52
2019-03-26T05:27:28.536Z,39.58
2019-03-26T05:29:59.312Z,39.51
2019-03-26T05:32:30.309Z,39.53
2019-03-26T05:35:01.407Z,39.49
2019-03-26T05:37:37.456Z,39.42
2019-03-26T05:40:09.256Z,39.50
2019-03-26T05:42:40.398Z,39.38
2019-03-26T05:45:14.245Z,39.46
2019-03-26T05:47:45.090Z,39.42
2019-03-26T05:50:15.829Z,39.15
2019-03-26T05:52:48.819Z,38.21
2019-03-26T05:55:20.651Z,38.67
2019-03-26T05:57:51.510Z,39.12
2019-03-26T06:00:24.344Z,39.07
2019-03-26T06:02:55.144Z,38.69
2019-03-26T06:05:26.234Z,38.82
2019-03-26T06:07:57.033Z,39.06
2019-03-26T06:10:27.844Z,38.79
2019-03-26T06:12:59.022Z,38.96
2019-03-26T06:15:29.826Z,39.16
2019-03-26T06:18:00.555Z,39.24
2019-03-26T06:20:31.328Z,39.30
2019-03-26T06:23:02.224Z,39.06
2019-03-26T06:25:34.065Z,39.20
2019-03-26T06:28:06.924Z,39.18
2019-03-26T06:30:38.118Z,39.05
2019-03-26T06:33:08.871Z,39.01
2019-03-26T06:35:42.519Z,36.93
2019-03-26T06:38:13.636Z,35.47
2019-03-26T06:40:46.816Z,34.02
2019-03-26T06:43:17.665Z,33.11
2019-03-26T06:45:48.473Z,34.88
2019-03-26T06:48:19.902Z,32.16
2019-03-26T06:50:50.798Z,31.16
2019-03-26T06:53:21.536Z,30.34
2019-03-26T06:55:52.313Z,31.68
2019-03-26T06:58:23.465Z,32.88
2019-03-26T07:00:55.788Z,33.85
2019-03-26T07:03:27.256Z,34.38
2019-03-26T07:05:57.960Z,34.64
2019-03-26T07:08:29.013Z,34.82
2019-03-26T07:10:59.825Z,34.90
2019-03-26T07:13:32.264Z,35.16
2019-03-26T07:16:03.013Z,35.30
2019-03-26T07:18:33.784Z,35.43
2019-03-26T07:21:04.554Z,35.54
2019-03-26T07:23:35.384Z,35.44
2019-03-26T07:26:06.221Z,35.98
2019-03-26T07:28:37.033Z,35.98
2019-03-26T07:31:07.955Z,36.16
2019-03-26T07:33:38.866Z,36.05
2019-03-26T07:36:09.936Z,36.04
2019-03-26T07:38:40.976Z,36.06
2019-03-26T07:41:11.688Z,36.07
2019-03-26T07:43:42.597Z,35.02
2019-03-26T07:46:13.480Z,33.88
2019-03-26T07:48:44.322Z,34.12
2019-03-26T07:51:19.204Z,34.57
2019-03-26T07:53:50.057Z,34.69
2019-03-26T07:56:20.916Z,35.15
2019-03-26T07:58:51.696Z,35.15
2019-03-26T08:01:22.549Z,35.17
2019-03-26T08:03:53.411Z,35.32
2019-03-26T08:06:25.805Z,35.45
2019-03-26T08:08:56.677Z,35.50
2019-03-26T08:11:27.492Z,35.58
2019-03-26T08:13:58.861Z,35.61
2019-03-26T08:16:29.775Z,35.75
2019-03-26T08:19:00.682Z,33.06
2019-03-26T08:21:31.535Z,32.56
2019-03-26T08:24:02.310Z,33.11
2019-03-26T08:26:33.134Z,33.00
2019-03-26T08:29:07.210Z,30.03
2019-03-26T08:31:38.045Z,32.09
2019-03-26T08:34:09.874Z,32.56
2019-03-26T08:36:40.763Z,33.21
2019-03-26T08:39:11.503Z,33.22
2019-03-26T08:41:42.229Z,33.00
2019-03-26T08:44:12.980Z,33.27
2019-03-26T08:46:46.265Z,33.45
2019-03-26T08:49:16.328Z,33.37
2019-03-26T08:51:47.106Z,31.87
2019-03-26T08:54:18.033Z,31.46
2019-03-26T08:56:48.910Z,32.15
2019-03-26T08:59:19.864Z,32.28
2019-03-26T09:01:50.600Z,32.75
2019-03-26T09:04:21.398Z,33.08
2019-03-26T09:06:52.109Z,33.15
2019-03-26T09:09:23.983Z,33.11
2019-03-26T09:11:54.826Z,33.41
2019-03-26T09:14:25.625Z,33.31
2019-03-26T09:16:57.527Z,33.51
2019-03-26T09:19:28.283Z,33.49
2019-03-26T09:21:59.176Z,33.02
2019-03-26T09:24:29.925Z,33.45
2019-03-26T09:27:00.709Z,33.21
2019-03-26T09:29:32.515Z,32.15
2019-03-26T09:32:03.296Z,30.35
2019-03-26T09:34:34.121Z,28.95
2019-03-26T09:37:05.027Z,28.67
2019-03-26T09:39:38.258Z,27.81
2019-03-26T09:42:08.341Z,28.27
2019-03-26T09:44:40.744Z,28.71
2019-03-26T09:47:16.306Z,29.61
2019-03-26T09:49:44.156Z,30.23
2019-03-26T09:52:14.983Z,30.64
2019-03-26T09:54:45.819Z,30.55
2019-03-26T09:57:16.626Z,30.92
2019-03-26T09:59:47.438Z,31.28
2019-03-26T10:02:19.270Z,31.58
2019-03-26T10:04:50.219Z,30.71
2019-03-26T10:07:22.012Z,31.36
2019-03-26T10:09:53.108Z,31.49
2019-03-26T10:12:25.011Z,31.75
2019-03-26T10:14:55.881Z,31.90
2019-03-26T10:17:26.795Z,32.00
2019-03-26T10:19:57.715Z,31.98
2019-03-26T10:22:28.579Z,32.00
2019-03-26T10:24:59.421Z,32.25
2019-03-26T10:27:30.239Z,32.52
2019-03-26T10:30:01.075Z,32.57
2019-03-26T10:32:32.084Z,32.79
2019-03-26T10:35:03.057Z,32.82
2019-03-26T10:37:33.850Z,32.87
2019-03-26T10:40:04.892Z,32.94
2019-03-26T10:42:35.715Z,32.68
2019-03-26T10:45:06.779Z,33.13
2019-03-26T10:47:37.586Z,34.02
2019-03-26T10:50:08.510Z,34.07
2019-03-26T10:52:40.344Z,34.34
2019-03-26T10:55:11.283Z,34.68
2019-03-26T10:57:42.087Z,34.45
2019-03-26T11:00:12.968Z,34.75
2019-03-26T11:02:43.855Z,34.70
2019-03-26T11:05:14.995Z,34.74
2019-03-26T11:07:45.861Z,34.57
2019-03-26T11:10:16.649Z,34.62
2019-03-26T11:12:47.573Z,34.68
2019-03-26T11:15:18.488Z,34.27
2019-03-26T11:17:49.336Z,34.02
2019-03-26T11:20:20.031Z,34.19
2019-03-26T11:22:50.779Z,34.55
2019-03-26T11:25:21.460Z,34.65
2019-03-26T11:27:52.272Z,34.55
2019-03-26T11:30:22.967Z,33.31
2019-03-26T11:32:53.703Z,34.36
2019-03-26T11:35:24.388Z,34.78
2019-03-26T11:37:55.224Z,34.83
2019-03-26T11:40:25.908Z,34.85
2019-03-26T11:42:56.651Z,34.94
2019-03-26T11:45:27.446Z,34.92
2019-03-26T11:47:58.342Z,35.06
2019-03-26T11:50:29.130Z,35.05
2019-03-26T11:52:59.877Z,35.05
2019-03-26T11:55:30.645Z,34.62
2019-03-26T11:58:01.447Z,34.83
2019-03-26T12:00:35.284Z,34.72
2019-03-26T12:03:06.074Z,33.47
2019-03-26T12:05:36.890Z,34.11
2019-03-26T12:08:08.513Z,35.09
2019-03-26T12:10:39.409Z,35.25
2019-03-26T12:13:10.242Z,35.25
2019-03-26T12:15:41.091Z,35.53
2019-03-26T12:18:11.910Z,36.30
2019-03-26T12:20:44.810Z,36.62
2019-03-26T12:23:15.601Z,36.19
2019-03-26T12:25:46.876Z,37.16
2019-03-26T12:28:18.010Z,37.18
2019-03-26T12:30:50.246Z,37.15
2019-03-26T12:33:21.221Z,37.17
2019-03-26T12:35:52.682Z,37.30
2019-03-26T12:38:24.001Z,37.20
2019-03-26T12:40:55.150Z,37.59
2019-03-26T12:43:26.233Z,37.54
2019-03-26T12:45:57.418Z,37.57
2019-03-26T12:48:28.506Z,35.52
2019-03-26T12:51:00.125Z,32.51
2019-03-26T12:53:34.398Z,31.87
2019-03-26T12:56:05.677Z,33.14
2019-03-26T12:58:36.958Z,33.75
2019-03-26T13:01:08.071Z,34.20
2019-03-26T13:03:39.324Z,34.23
2019-03-26T13:06:10.708Z,34.59
2019-03-26T13:08:41.818Z,34.52
2019-03-26T13:11:13.298Z,34.78
2019-03-26T13:13:44.174Z,34.96
2019-03-26T13:16:15.000Z,35.76
2019-03-26T13:18:45.813Z,36.07
2019-03-26T13:21:16.700Z,36.41
2019-03-26T13:23:47.735Z,36.31
2019-03-26T13:26:18.799Z,36.08
2019-03-26T13:28:49.771Z,35.91
2019-03-26T13:31:21.196Z,35.99
2019-03-26T13:33:52.569Z,36.08
2019-03-26T13:36:23.874Z,34.14
2019-03-26T13:38:59.173Z,32.94
2019-03-26T13:41:32.917Z,31.94
2019-03-26T13:44:04.232Z,31.85
2019-03-26T13:46:35.070Z,31.92
2019-03-26T13:49:06.002Z,32.02
2019-03-26T13:51:37.335Z,32.42
2019-03-26T13:54:08.239Z,32.36
2019-03-26T13:56:39.059Z,32.45
2019-03-26T13:59:09.861Z,31.05
2019-03-26T14:01:42.139Z,29.59
2019-03-26T14:04:14.467Z,28.36
2019-03-26T14:06:45.367Z,28.22
2019-03-26T14:09:14.285Z,28.75
2019-03-26T14:11:43.129Z,25.60
2019-03-26T14:14:14.415Z,26.72
2019-03-26T14:16:45.142Z,25.95
2019-03-26T14:19:15.953Z,24.55
2019-03-26T14:21:46.836Z,23.57
2019-03-26T14:24:17.837Z,23.28
2019-03-26T14:26:48.651Z,24.09
2019-03-26T14:29:19.536Z,23.29
2019-03-26T14:31:50.500Z,23.54
2019-03-26T14:34:21.231Z,23.93
2019-03-26T14:36:52.057Z,22.95
2019-03-26T14:39:22.896Z,23.22
2019-03-26T14:41:53.825Z,23.10
2019-03-26T14:44:24.607Z,23.09
2019-03-26T14:46:55.459Z,23.01
2019-03-26T14:49:26.309Z,22.94
2019-03-26T14:51:57.161Z,22.65
2019-03-26T14:54:27.940Z,23.10
2019-03-26T14:56:58.884Z,22.98
2019-03-26T14:59:29.738Z,24.04
2019-03-26T15:02:00.591Z,23.14
2019-03-26T15:04:36.692Z,23.10
2019-03-26T15:07:08.744Z,21.88
2019-03-26T15:09:39.592Z,22.72
2019-03-26T15:12:10.556Z,22.24
2019-03-26T15:14:41.410Z,21.77
2019-03-26T15:17:12.323Z,22.33
2019-03-26T15:19:43.212Z,21.37
2019-03-26T15:22:13.941Z,22.12
2019-03-26T15:24:44.882Z,22.08
2019-03-26T15:27:15.702Z,21.43
2019-03-26T15:29:46.562Z,20.89
2019-03-26T15:32:17.500Z,21.09
2019-03-26T15:34:49.297Z,22.07
2019-03-26T15:37:20.101Z,22.68
2019-03-26T15:39:50.911Z,21.41
2019-03-26T15:42:22.998Z,21.52
2019-03-26T15:44:53.949Z,21.42
2019-03-26T15:47:24.799Z,21.54
2019-03-26T15:49:55.631Z,21.38
2019-03-26T15:52:26.470Z,20.70
2019-03-26T15:54:57.342Z,21.50
2019-03-26T15:57:28.083Z,21.71
2019-03-26T15:59:58.924Z,20.66
2019-03-26T16:02:29.888Z,21.36
2019-03-26T16:05:00.634Z,21.78
2019-03-26T16:07:33.450Z,21.58
2019-03-26T16:10:04.335Z,21.16
2019-03-26T16:12:41.074Z,20.94
2019-03-26T16:15:08.491Z,21.20
2019-03-26T16:17:39.390Z,21.86
2019-03-26T16:20:10.206Z,22.36
2019-03-26T16:22:41.297Z,23.30
2019-03-26T16:25:12.058Z,23.51
2019-03-26T16:27:42.873Z,23.77
2019-03-26T16:30:13.599Z,23.95
2019-03-26T16:32:44.431Z,24.36
2019-03-26T16:35:15.192Z,24.27
2019-03-26T16:37:46.025Z,24.19
2019-03-26T16:40:16.930Z,24.09
2019-03-26T16:42:47.735Z,24.34
2019-03-26T16:45:18.557Z,24.33
2019-03-26T16:47:49.359Z,24.72
2019-03-26T16:50:20.246Z,25.17
2019-03-26T16:52:51.177Z,25.16
2019-03-26T16:55:22.092Z,25.00
2019-03-26T16:57:52.978Z,25.12
2019-03-26T17:00:32.224Z,25.31
2019-03-26T17:03:03.095Z,25.30
2019-03-26T17:05:33.913Z,25.28
2019-03-26T17:08:04.994Z,25.10
2019-03-26T17:10:35.783Z,25.65
2019-03-26T17:13:06.818Z,26.38
2019-03-26T17:15:37.806Z,27.01
2019-03-26T17:18:11.838Z,27.45
2019-03-26T17:20:43.421Z,27.88
2019-03-26T17:23:14.591Z,28.26
2019-03-26T17:25:45.702Z,28.58
2019-03-26T17:28:19.928Z,28.81
2019-03-26T17:30:55.429Z,29.03
2019-03-26T17:33:28.976Z,29.28
2019-03-26T17:35:59.286Z,29.62
2019-03-26T17:38:30.437Z,29.65
2019-03-26T17:41:01.288Z,29.63
2019-03-26T17:43:32.211Z,29.47
2019-03-26T17:46:03.084Z,29.38
2019-03-26T17:48:33.950Z,29.49
2019-03-26T17:51:04.939Z,29.51
2019-03-26T17:53:35.886Z,29.70
2019-03-26T17:56:07.594Z,29.66
2019-03-26T17:58:40.270Z,30.24
2019-03-26T18:01:11.767Z,30.15
2019-03-26T18:03:42.604Z,30.16
2019-03-26T18:06:16.797Z,29.97
2019-03-26T18:08:47.625Z,30.20
2019-03-26T18:11:18.415Z,27.89
2019-03-26T18:13:49.258Z,25.30
2019-03-26T18:16:20.075Z,24.79
2019-03-26T18:18:50.837Z,25.15
2019-03-26T18:21:23.074Z,26.84
2019-03-26T18:23:55.159Z,27.35
2019-03-26T18:26:26.383Z,28.08
2019-03-26T18:28:58.343Z,28.34
2019-03-26T18:31:31.303Z,28.51
2019-03-26T18:34:02.141Z,28.42
2019-03-26T18:36:33.625Z,27.85
2019-03-26T18:39:06.501Z,28.04
2019-03-26T18:41:38.148Z,28.50
2019-03-26T18:44:09.252Z,28.69
2019-03-26T18:46:40.311Z,28.75
2019-03-26T18:49:11.603Z,28.82
2019-03-26T18:51:42.763Z,28.91
2019-03-26T18:54:15.360Z,28.93
2019-03-26T18:56:46.408Z,29.07
2019-03-26T18:59:17.739Z,29.08
2019-03-26T19:01:49.126Z,29.21
2019-03-26T19:04:20.548Z,29.16
2019-03-26T19:06:51.428Z,29.29
2019-03-26T19:09:22.690Z,29.39
2019-03-26T19:11:53.586Z,29.47
2019-03-26T19:14:25.097Z,29.54
2019-03-26T19:16:56.466Z,29.62
2019-03-26T19:19:27.735Z,29.64
2019-03-26T19:21:58.958Z,29.72
2019-03-26T19:24:30.018Z,29.86
2019-03-26T19:27:04.288Z,30.09
2019-03-26T19:29:35.019Z,30.08
2019-03-26T19:32:07.287Z,30.20
2019-03-26T19:34:38.983Z,30.45
2019-03-26T19:37:10.217Z,30.51
2019-03-26T19:39:41.605Z,30.47
2019-03-26T19:42:12.510Z,30.53
2019-03-26T19:44:43.415Z,30.63
2019-03-26T19:47:14.665Z,30.71
2019-03-26T19:49:48.267Z,30.79
2019-03-26T19:52:20.706Z,30.78
2019-03-26T19:54:54.195Z,30.90
2019-03-26T19:57:25.197Z,31.06
2019-03-26T19:59:56.093Z,31.17
2019-03-26T20:02:26.921Z,31.15
2019-03-26T20:04:57.757Z,31.61
2019-03-26T20:07:28.716Z,31.64
2019-03-26T20:09:59.780Z,31.68
2019-03-26T20:12:30.635Z,31.63
2019-03-26T20:15:01.631Z,31.77
2019-03-26T20:17:32.741Z,31.70
2019-03-26T20:20:04.157Z,31.77
2019-03-26T20:22:35.597Z,31.82
2019-03-26T20:25:07.556Z,31.82
2019-03-26T20:27:40.088Z,31.83
2019-03-26T20:30:11.967Z,31.89
2019-03-26T20:32:42.926Z,31.85
2019-03-26T20:35:14.835Z,31.92
2019-03-26T20:37:46.717Z,32.00
2019-03-26T20:40:17.613Z,32.02
2019-03-26T20:42:48.596Z,32.01
2019-03-26T20:45:19.437Z,32.04
2019-03-26T20:47:50.694Z,32.13
2019-03-26T20:50:21.550Z,32.13
2019-03-26T20:52:53.998Z,32.17
2019-03-26T20:55:35.123Z,32.18
2019-03-26T20:58:05.967Z,32.36
2019-03-26T21:00:38.071Z,32.50
2019-03-26T21:03:09.176Z,32.71
2019-03-26T21:05:40.041Z,32.95
2019-03-26T21:08:10.949Z,33.08
2019-03-26T21:10:41.787Z,33.10
2019-03-26T21:13:12.656Z,33.12
2019-03-26T21:15:56.365Z,33.12
2019-03-26T21:18:16.269Z,33.14
2019-03-26T21:20:48.409Z,33.13
2019-03-26T21:23:19.310Z,33.12
2019-03-26T21:25:50.137Z,33.13
2019-03-26T21:28:22.133Z,33.07
2019-03-26T21:30:52.951Z,33.13
2019-03-26T21:33:23.699Z,33.13
2019-03-26T21:35:54.580Z,33.79
2019-03-26T21:38:25.330Z,33.95
2019-03-26T21:40:56.215Z,34.02
2019-03-26T21:43:27.013Z,33.97
2019-03-26T21:45:57.795Z,33.97
2019-03-26T21:48:28.651Z,34.15
2019-03-26T21:50:59.417Z,34.61
2019-03-26T21:53:30.190Z,34.77
2019-03-26T21:56:06.867Z,35.35
2019-03-26T21:58:33.993Z,35.68
2019-03-26T22:01:05.000Z,36.19
2019-03-26T22:03:35.884Z,36.48
2019-03-26T22:06:07.163Z,36.52
2019-03-26T22:08:39.041Z,36.76
2019-03-26T22:11:10.148Z,36.75
2019-03-26T22:13:40.982Z,36.64
2019-03-26T22:16:11.866Z,36.48
2019-03-26T22:18:42.720Z,36.62
2019-03-26T22:21:13.532Z,36.60
2019-03-26T22:23:44.347Z,36.60
2019-03-26T22:26:15.198Z,36.52
2019-03-26T22:28:46.010Z,36.71
2019-03-26T22:31:16.926Z,36.59
2019-03-26T22:33:47.721Z,36.63
2019-03-26T22:36:18.629Z,36.69
2019-03-26T22:38:50.423Z,36.56
2019-03-26T22:41:21.287Z,36.51
2019-03-26T22:43:54.982Z,36.45
2019-03-26T22:46:24.605Z,36.52
2019-03-26T22:48:55.311Z,36.52
2019-03-26T22:51:26.284Z,36.38
2019-03-26T22:53:57.019Z,36.43
2019-03-26T22:56:27.933Z,36.31
2019-03-26T22:58:58.701Z,36.25
2019-03-26T23:01:29.518Z,36.42
2019-03-26T23:04:00.329Z,36.38
2019-03-26T23:06:31.250Z,36.36
2019-03-26T23:09:02.203Z,36.33
2019-03-26T23:11:34.962Z,36.27
2019-03-26T23:14:05.833Z,36.28
2019-03-26T23:16:36.892Z,36.19
2019-03-26T23:19:07.718Z,36.15
2019-03-26T23:21:38.621Z,36.10
2019-03-26T23:24:10.467Z,36.02
2019-03-26T23:26:42.906Z,36.01
2019-03-26T23:29:15.264Z,36.06
2019-03-26T23:31:46.124Z,36.03
2019-03-26T23:34:16.937Z,36.04
2019-03-26T23:36:48.087Z,36.02
2019-03-26T23:39:19.175Z,35.97
2019-03-26T23:41:49.999Z,35.95
2019-03-26T23:44:25.966Z,35.96
2019-03-26T23:46:53.569Z,35.96
2019-03-26T23:49:24.409Z,35.86
2019-03-26T23:51:56.550Z,35.88
2019-03-26T23:54:27.395Z,35.89
2019-03-26T23:56:58.201Z,35.83
2019-03-26T23:59:29.126Z,35.87
